Terminal Aerodrome Forecast
Issued by NWS Springfield, MO

Home | Current Version | Previous Version | Text Only | Print | Product List | Glossary On
Versions: 1 2 3 4 5 6 7 8 9 10 11 12 13 14 15 16 17 18 19 20 21
000
FTUS43 KSGF 040800 AAA
TAFSGF
TAF AMD
KSGF 040844Z 0409/0506 02010KT P6SM OVC015
     FM041100 02010KT 5SM -RADZ BR BKN005 OVC015
      TEMPO 0411/0413 2SM -FZRAPL BR
     FM041300 02013KT 1 1/2SM -SN BR OVC006
      TEMPO 0413/0417 1/2SM SN FG VV004
     FM042100 02013KT 3SM -SN BR OVC012
     FM050000 02010KT P6SM SCT020 OVC050
     FM050300 03008KT P6SM OVC070=

USA.gov is the U.S. government's official web portal to all federal, state and local government web resources and services.